Time;durP1;ratioP1;P1;durP2;ratioP2;P2;SDS_P1;SDS_P2;PMS_P1;PMS_P2;Temp;Humidity;BMP_temperature;BMP_pressure;BME280_temperature;BME280_humidity;BME280_pressure;Samples;Min_cycle;Max_cycle;Signal;HPM_P1;HPM_P2
2021/01/27 00:00:29;;;;;;;17.30;10.88;;;;;;;1.46;70.59;99070.02;1684038;82;21137;-50
2021/01/27 00:02:59;;;;;;;18.35;10.63;;;;;;;1.47;70.68;99065.13;1682287;83;21678;-50
2021/01/27 00:09:09;;;;;;;18.05;10.70;;;;;;;1.47;70.84;99070.44;1790448;77;23044;-52
2021/01/27 00:11:37;;;;;;;15.63;10.18;;;;;;;1.39;70.87;99063.13;1762478;80;21008;-48
2021/01/27 00:14:05;;;;;;;16.90;10.25;;;;;;;1.37;70.66;99059.61;1763565;78;21361;-49
2021/01/27 00:16:33;;;;;;;17.05;10.43;;;;;;;1.35;70.40;99072.07;1765699;80;21060;-49
2021/01/27 00:19:03;;;;;;;17.32;11.43;;;;;;;1.36;70.33;99072.94;1761133;80;21020;-44
2021/01/27 00:21:31;;;;;;;15.78;11.45;;;;;;;1.35;70.48;99072.07;1763402;78;20985;-44
2021/01/27 00:24:00;;;;;;;19.65;11.28;;;;;;;1.33;70.54;99073.00;1762200;78;20969;-43
2021/01/27 00:26:28;;;;;;;18.52;11.28;;;;;;;1.31;70.65;99075.70;1764813;78;21336;-44
2021/01/27 00:28:56;;;;;;;18.45;12.30;;;;;;;1.29;70.74;99085.50;1763282;79;21136;-46
2021/01/27 00:31:24;;;;;;;17.30;11.75;;;;;;;1.26;70.91;99078.46;1771581;80;21978;-48
2021/01/27 00:33:53;;;;;;;17.77;11.53;;;;;;;1.25;70.89;99083.81;1772295;80;21663;-47
2021/01/27 00:36:21;;;;;;;20.45;12.45;;;;;;;1.22;71.04;99070.14;1767680;80;21587;-46
2021/01/27 00:38:49;;;;;;;16.82;11.05;;;;;;;1.22;71.12;99063.50;1770311;78;22271;-46
2021/01/27 00:41:17;;;;;;;18.10;11.70;;;;;;;1.22;70.85;99062.63;1772437;80;21547;-46
2021/01/27 00:43:46;;;;;;;17.70;10.50;;;;;;;1.17;70.81;99059.21;1765054;80;21096;-46
2021/01/27 00:46:14;;;;;;;19.05;10.75;;;;;;;1.16;70.96;99062.78;1766211;78;21080;-47
2021/01/27 00:48:42;;;;;;;19.42;11.18;;;;;;;1.17;70.99;99061.86;1762990;78;21553;-46
2021/01/27 00:51:10;;;;;;;18.62;11.53;;;;;;;1.17;70.99;99053.89;1762527;80;21548;-47
2021/01/27 00:53:43;;;;;;;17.80;11.60;;;;;;;1.15;71.00;99050.42;1762599;80;21005;-46
2021/01/27 00:56:15;;;;;;;16.73;10.55;;;;;;;1.13;70.96;99046.94;1763543;78;21575;-47
2021/01/27 00:58:42;;;;;;;18.02;11.30;;;;;;;1.11;71.04;99044.75;1764355;80;21001;-46
2021/01/27 01:01:12;;;;;;;20.23;11.55;;;;;;;1.09;70.94;99036.84;1764698;80;20977;-46
2021/01/27 01:03:41;;;;;;;17.32;11.12;;;;;;;1.08;70.98;99032.89;1772286;80;22369;-47
2021/01/27 01:06:09;;;;;;;20.12;10.78;;;;;;;1.07;71.04;99039.13;1764150;80;21584;-47
2021/01/27 01:08:38;;;;;;;22.52;11.85;;;;;;;1.04;71.17;99040.92;1766650;79;21127;-47
2021/01/27 01:11:07;;;;;;;20.72;12.47;;;;;;;1.04;71.35;99052.00;1768210;80;21647;-47
2021/01/27 01:13:36;;;;;;;23.05;11.95;;;;;;;1.04;71.46;99047.55;1766520;80;20938;-47
2021/01/27 01:16:04;;;;;;;16.15;11.30;;;;;;;1.03;71.54;99047.14;1772290;80;21199;-46
2021/01/27 01:18:33;;;;;;;21.12;11.95;;;;;;;1.03;71.58;99047.14;1764673;80;21013;-46
2021/01/27 01:21:01;;;;;;;22.00;12.15;;;;;;;1.01;71.75;99044.99;1764093;80;21186;-46
2021/01/27 01:23:29;;;;;;;17.30;10.82;;;;;;;0.99;71.94;99034.84;1766135;80;20977;-46
2021/01/27 01:25:57;;;;;;;18.80;11.22;;;;;;;1.00;72.01;99033.06;1764249;80;20977;-47
2021/01/27 01:28:25;;;;;;;22.17;12.47;;;;;;;1.00;72.10;99033.93;1765738;78;21195;-46
2021/01/27 01:30:53;;;;;;;16.95;11.30;;;;;;;0.98;72.17;99027.80;1775507;78;21024;-46
2021/01/27 01:33:28;;;;;;;16.40;10.90;;;;;;;0.99;72.32;99036.62;1768987;80;21632;-46
2021/01/27 01:35:56;;;;;;;17.30;11.20;;;;;;;0.98;72.44;99030.45;1763355;80;21020;-47
2021/01/27 01:38:24;;;;;;;20.52;12.30;;;;;;;0.99;72.49;99029.53;1773622;80;20933;-46
2021/01/27 01:40:57;;;;;;;18.35;12.43;;;;;;;0.99;72.54;99018.91;1765558;80;21444;-46
2021/01/27 01:43:33;;;;;;;17.25;11.08;;;;;;;0.98;72.59;99011.86;1764512;80;20997;-49
2021/01/27 01:46:14;;;;;;;20.95;12.30;;;;;;;0.99;72.69;99013.61;1762565;80;20985;-46
2021/01/27 01:48:53;;;;;;;19.02;11.65;;;;;;;1.01;72.77;99009.16;1769061;78;20981;-47
2021/01/27 01:51:42;;;;;;;20.17;12.23;;;;;;;1.08;72.64;99012.98;1822167;76;22206;-47
2021/01/27 01:54:18;;;;;;;23.27;11.65;;;;;;;0.99;72.78;99015.39;1787262;77;20957;-46
2021/01/27 01:57:04;;;;;;;21.45;13.28;;;;;;;0.96;72.88;99013.70;1751134;79;24132;-45
2021/01/27 01:59:33;;;;;;;20.62;12.43;;;;;;;0.93;72.99;99000.48;1745749;79;21002;-47
2021/01/27 02:02:03;;;;;;;20.05;11.60;;;;;;;0.94;73.07;99007.53;1748330;79;20997;-47
2021/01/27 02:04:37;;;;;;;19.87;12.63;;;;;;;0.94;73.06;99002.22;1745421;79;21005;-46
2021/01/27 02:07:05;;;;;;;18.85;11.12;;;;;;;0.94;73.13;98999.56;1742967;79;20981;-46
2021/01/27 02:09:34;;;;;;;22.02;12.85;;;;;;;0.92;73.21;99004.05;1744581;79;21332;-46
2021/01/27 02:12:47;;;;;;;19.87;12.15;;;;;;;0.91;73.30;99004.97;1750394;79;21036;-47
2021/01/27 02:15:35;;;;;;;22.05;12.88;;;;;;;0.88;73.28;98994.41;1743840;79;20998;-47
2021/01/27 02:18:23;;;;;;;20.52;12.37;;;;;;;0.85;73.25;98993.14;1749583;79;20985;-46
2021/01/27 02:21:15;;;;;;;23.30;13.43;;;;;;;0.85;73.32;98997.58;1746068;79;21049;-46
2021/01/27 02:23:57;;;;;;;18.02;12.45;;;;;;;0.86;73.36;99003.33;1744295;79;21277;-48
2021/01/27 02:26:52;;;;;;;17.57;11.95;;;;;;;0.85;73.41;99001.09;1746286;79;21160;-48
2021/01/27 02:29:47;;;;;;;20.85;12.00;;;;;;;0.84;73.46;98998.03;1743775;79;21203;-46
2021/01/27 02:33:01;;;;;;;23.35;13.15;;;;;;;0.84;73.56;99000.69;1745448;79;21160;-47
2021/01/27 02:35:48;;;;;;;19.82;12.47;;;;;;;0.92;73.56;98993.44;1794511;76;23414;-47
2021/01/27 02:38:30;;;;;;;19.75;12.28;;;;;;;0.84;73.56;98995.37;1756851;79;20997;-47
2021/01/27 02:41:21;;;;;;;19.62;11.97;;;;;;;0.86;73.60;98990.93;1730131;80;21365;-47
2021/01/27 02:44:01;;;;;;;19.82;12.45;;;;;;;0.93;73.64;98991.19;1816667;77;23336;-46
2021/01/27 02:46:34;;;;;;;21.23;13.85;;;;;;;0.87;73.64;98995.78;1748994;80;20998;-46
2021/01/27 02:49:43;;;;;;;17.42;11.43;;;;;;;0.86;73.70;98990.93;1753012;80;21248;-46
2021/01/27 02:52:30;;;;;;;20.92;14.43;;;;;;;0.88;73.81;98993.08;1842836;74;29031;-47
2021/01/27 02:55:14;;;;;;;19.17;12.10;;;;;;;0.85;73.85;98999.77;1816466;75;20944;-46
2021/01/27 02:57:50;;;;;;;20.88;11.57;;;;;;;0.86;73.77;98997.56;1769222;77;21290;-46
2021/01/27 03:00:30;;;;;;;19.42;12.13;;;;;;;0.85;73.86;99010.39;1802571;77;20956;-46
2021/01/27 03:03:09;;;;;;;19.10;12.60;;;;;;;0.85;73.89;99003.75;1805142;77;21418;-46
2021/01/27 03:05:40;;;;;;;18.70;11.28;;;;;;;0.87;73.96;98995.33;1805090;77;21923;-47
2021/01/27 03:08:21;;;;;;;22.27;11.85;;;;;;;0.89;73.98;98993.49;1799118;77;20952;-46
2021/01/27 03:11:19;;;;;;;20.10;11.75;;;;;;;0.91;73.88;98991.70;1809112;77;21342;-47
2021/01/27 03:13:48;;;;;;;18.60;11.90;;;;;;;0.89;73.84;98997.93;1801101;77;21544;-47
2021/01/27 03:16:24;;;;;;;21.65;12.65;;;;;;;0.85;73.99;98997.12;1803234;77;21009;-47
2021/01/27 03:19:09;;;;;;;20.72;12.23;;;;;;;0.84;74.01;98996.70;1798407;77;21035;-48
2021/01/27 03:21:43;;;;;;;19.10;12.33;;;;;;;0.85;74.06;98998.44;1807218;77;20997;-47
2021/01/27 03:24:17;;;;;;;22.85;13.00;;;;;;;0.84;74.07;98992.73;1803733;77;21531;-48
2021/01/27 03:26:58;;;;;;;19.95;12.43;;;;;;;0.81;74.17;98986.18;1807619;77;21139;-46
2021/01/27 03:29:48;;;;;;;19.87;12.60;;;;;;;0.88;74.23;98986.45;1818360;76;22707;-47
2021/01/27 03:32:19;;;;;;;;;;;;;;;0.80;74.12;98979.13;1783630;79;20962;-47
2021/01/27 03:34:51;;;;;;;;;;;;;;;0.81;74.26;98974.70;1780851;79;22061;-46
2021/01/27 03:37:30;;;;;;;23.15;13.43;;;;;;;0.81;74.40;98966.28;1779776;79;20174;-47
2021/01/27 03:40:09;;;;;;;22.80;15.77;;;;;;;0.87;74.42;98968.78;1775927;77;28014;-48
2021/01/27 03:42:49;;;;;;;25.80;14.13;;;;;;;0.87;74.36;98965.25;1775416;80;20951;-46
2021/01/27 03:45:26;;;;;;;26.35;14.38;;;;;;;0.93;74.32;98970.41;1800510;76;22735;-47
2021/01/27 03:48:18;;;;;;;21.55;13.03;;;;;;;0.84;74.44;98964.86;1778725;78;20963;-47
2021/01/27 03:50:47;;;;;;;19.82;12.33;;;;;;;0.85;74.55;98968.38;1781968;78;21943;-48
2021/01/27 03:53:17;;;;;;;20.85;12.50;;;;;;;0.82;74.67;98970.67;1748809;79;21043;-46
2021/01/27 03:56:15;;;;;;;23.77;14.47;;;;;;;0.79;74.89;98974.25;1778504;79;21019;-47
2021/01/27 03:58:46;;;;;;;25.52;14.50;;;;;;;0.77;75.06;98983.17;1781030;79;21684;-47
2021/01/27 04:01:21;;;;;;;23.90;14.70;;;;;;;0.72;75.27;98974.45;1782092;78;21015;-46
2021/01/27 04:03:51;;;;;;;24.10;13.88;;;;;;;0.72;75.46;98977.09;1782538;79;22114;-47
2021/01/27 04:06:19;;;;;;;28.52;14.58;;;;;;;0.72;75.49;98983.73;1782634;79;21587;-46
2021/01/27 04:08:49;;;;;;;24.43;14.03;;;;;;;0.74;75.59;98988.53;1782888;79;21563;-47
2021/01/27 04:11:17;;;;;;;25.45;14.90;;;;;;;0.73;75.60;98986.80;1783786;79;21154;-48
2021/01/27 04:13:45;;;;;;;23.83;14.20;;;;;;;0.72;75.67;98979.75;1782907;79;21034;-47
2021/01/27 04:16:13;;;;;;;20.77;13.58;;;;;;;0.73;75.75;98985.47;1783277;79;21186;-46
2021/01/27 04:18:41;;;;;;;26.02;13.78;;;;;;;0.72;75.81;98985.05;1782742;79;21716;-48
2021/01/27 04:21:11;;;;;;;23.32;13.68;;;;;;;0.72;75.88;98987.71;1782784;78;21559;-49
2021/01/27 04:23:39;;;;;;;20.92;13.83;;;;;;;0.72;75.85;98986.38;1783737;79;21011;-47
2021/01/27 04:26:07;;;;;;;22.70;13.35;;;;;;;0.71;75.93;98989.95;1783325;79;21534;-46
2021/01/27 04:28:35;;;;;;;24.80;14.00;;;;;;;0.73;75.98;98986.80;1783702;79;21104;-47
2021/01/27 04:31:04;;;;;;;19.57;12.45;;;;;;;0.72;76.02;98990.36;1783337;79;20991;-46
2021/01/27 04:33:32;;;;;;;21.07;13.20;;;;;;;0.73;76.10;98996.08;1783506;79;21203;-46
2021/01/27 04:36:00;;;;;;;21.65;13.68;;;;;;;0.73;76.16;98996.08;1783107;79;21145;-46
2021/01/27 04:38:28;;;;;;;25.50;13.70;;;;;;;0.71;76.22;98999.23;1783451;79;21002;-47
2021/01/27 04:40:57;;;;;;;21.30;13.83;;;;;;;0.70;76.24;98998.37;1783243;79;21993;-46
2021/01/27 04:43:39;;;;;;;22.52;13.88;;;;;;;0.70;76.27;98994.84;1783205;79;20970;-49
2021/01/27 04:46:27;;;;;;;22.93;14.25;;;;;;;0.68;76.33;98996.64;1771931;78;21164;-47
2021/01/27 04:49:13;;;;;;;22.32;13.75;;;;;;;0.69;76.34;98998.38;1798719;78;21102;-47
2021/01/27 04:52:02;;;;;;;24.80;14.85;;;;;;;0.74;76.46;98999.15;1818711;75;22829;-47
2021/01/27 04:54:47;;;;;;;26.90;14.63;;;;;;;0.68;76.46;98996.64;1813141;77;21629;-48
2021/01/27 04:58:03;;;;;;;28.77;15.83;;;;;;;0.68;76.50;98996.64;1814110;77;22208;-46
2021/01/27 05:00:47;;;;;;;28.30;16.85;;;;;;;0.69;76.55;99002.36;1813303;77;21025;-47
2021/01/27 05:03:44;;;;;;;26.35;14.80;;;;;;;0.67;76.60;98994.90;1809800;77;20981;-47
2021/01/27 05:06:22;;;;;;;22.65;13.80;;;;;;;0.66;76.72;98990.51;1809314;77;20963;-47
2021/01/27 05:09:17;;;;;;;22.20;14.83;;;;;;;0.65;76.80;98996.27;1812296;77;21001;-47
2021/01/27 05:11:53;;;;;;;26.27;16.35;;;;;;;0.69;76.92;98999.28;1808047;77;22710;-47
2021/01/27 05:14:22;;;;;;;30.08;15.90;;;;;;;0.64;76.95;99001.59;1779629;77;20974;-47
2021/01/27 05:16:50;;;;;;;24.32;15.68;;;;;;;0.64;77.03;98997.19;1757638;79;21996;-48
2021/01/27 05:19:18;;;;;;;22.70;14.18;;;;;;;0.65;77.07;99003.36;1759409;79;21006;-47
2021/01/27 05:21:53;;;;;;;22.95;14.05;;;;;;;0.66;77.15;99002.45;1755243;79;21621;-49
2021/01/27 05:24:21;;;;;;;29.75;15.65;;;;;;;0.66;77.17;99007.30;1762740;79;20958;-48
2021/01/27 05:27:07;;;;;;;26.12;15.58;;;;;;;0.67;77.23;99013.47;1755311;79;21026;-48
2021/01/27 05:29:48;;;;;;;25.30;15.03;;;;;;;0.67;77.29;99010.36;1757235;79;21259;-47
2021/01/27 05:32:27;;;;;;;23.67;14.30;;;;;;;0.74;77.37;99017.72;1821306;76;22764;-48
2021/01/27 05:34:57;;;;;;;28.20;15.68;;;;;;;0.68;77.43;99018.73;1780512;77;21156;-47
2021/01/27 05:37:32;;;;;;;23.55;14.70;;;;;;;0.69;77.49;99022.26;1766591;79;21368;-47
2021/01/27 05:40:26;;;;;;;23.90;14.98;;;;;;;0.68;77.62;99030.67;1770213;79;21021;-46
2021/01/27 05:42:54;;;;;;;23.77;15.35;;;;;;;0.69;77.68;99043.06;1766588;78;20981;-50
2021/01/27 05:45:43;;;;;;;25.50;15.13;;;;;;;0.68;77.77;99039.09;1758858;78;21061;-47
2021/01/27 05:48:33;;;;;;;25.27;15.38;;;;;;;0.70;77.81;99035.97;1763473;78;21624;-46
2021/01/27 05:51:11;;;;;;;;;;;;;;;0.69;77.87;99043.48;1766404;79;21005;-48
2021/01/27 05:53:38;;;;;;;25.72;14.53;;;;;;;0.70;77.98;99047.45;1767090;78;20950;-47
2021/01/27 05:56:20;;;;;;;25.20;15.58;;;;;;;0.71;78.02;99035.06;1759045;78;21555;-48
2021/01/27 05:59:07;;;;;;;23.15;13.83;;;;;;;0.73;78.04;99042.52;1769303;78;21013;-47
2021/01/27 06:01:46;;;;;;;25.20;15.60;;;;;;;0.83;78.08;99032.13;1839580;76;22786;-47
2021/01/27 06:04:22;;;;;;;27.20;15.43;;;;;;;0.80;78.10;99042.83;1806918;77;21688;-49
2021/01/27 06:06:55;;;;;;;29.77;15.95;;;;;;;0.81;78.11;99039.72;1760558;79;21196;-47
2021/01/27 06:09:42;;;;;;;28.10;16.93;;;;;;;0.80;78.17;99038.84;1759404;79;21013;-49
2021/01/27 06:12:24;;;;;;;28.30;16.55;;;;;;;0.79;78.30;99031.77;1755645;79;20965;-48
2021/01/27 06:15:10;;;;;;;28.45;16.52;;;;;;;0.81;78.32;99032.63;1759122;77;20969;-47
2021/01/27 06:17:44;;;;;;;28.40;16.35;;;;;;;0.82;78.37;99032.17;1758408;79;21004;-48
2021/01/27 06:20:28;;;;;;;28.23;16.70;;;;;;;0.82;78.41;99042.33;1760395;79;21449;-48
2021/01/27 06:23:08;;;;;;;;;;;;;;;0.81;78.46;99051.20;1760922;79;21053;-48
2021/01/27 06:26:01;;;;;;;31.77;16.02;;;;;;;0.80;78.54;99050.79;1759177;78;20161;-48
2021/01/27 06:29:04;;;;;;;31.55;16.45;;;;;;;0.81;78.62;99051.20;1761410;79;21185;-47
2021/01/27 06:32:10;;;;;;;25.80;14.58;;;;;;;0.88;78.70;99052.80;1858432;75;22218;-46
2021/01/27 06:35:13;;;;;;;32.78;17.52;;;;;;;0.84;78.71;99051.11;1753239;78;21002;-46
2021/01/27 06:37:47;;;;;;;;;;;;;;;0.81;78.77;99052.98;1770215;79;21279;-48
2021/01/27 06:40:55;;;;;;;31.15;16.95;;;;;;;0.78;79.02;99056.11;1763133;78;20176;-46
2021/01/27 06:43:46;;;;;;;26.93;16.07;;;;;;;0.78;79.10;99049.92;1755718;80;21614;-46
2021/01/27 06:46:19;;;;;;;25.70;16.10;;;;;;;0.77;79.09;99054.82;1756655;80;20998;-46
2021/01/27 06:49:13;;;;;;;30.27;16.97;;;;;;;0.80;79.11;99054.77;1751918;80;21558;-50
2021/01/27 06:52:08;;;;;;;31.55;17.30;;;;;;;0.82;79.13;99054.27;1758448;80;21632;-48
2021/01/27 06:55:06;;;;;;;28.75;16.35;;;;;;;0.83;79.13;99056.01;1756850;79;21893;-46
2021/01/27 06:57:57;;;;;;;28.83;17.80;;;;;;;0.86;79.07;99051.97;1755841;80;21316;-46
2021/01/27 07:00:43;;;;;;;31.00;17.40;;;;;;;0.86;78.88;99045.34;1754280;80;21537;-47
2021/01/27 07:03:35;;;;;;;29.30;17.70;;;;;;;0.83;78.86;99033.45;1752652;80;21108;-52
2021/01/27 07:06:38;;;;;;;31.55;17.57;;;;;;;0.83;78.92;99034.77;1752886;79;21316;-51
2021/01/27 07:09:29;;;;;;;27.22;17.05;;;;;;;0.84;78.95;99038.30;1755137;79;21033;-51
2021/01/27 07:12:41;;;;;;;39.83;19.07;;;;;;;0.84;79.09;99032.53;1756957;79;21147;-48
2021/01/27 07:15:38;;;;;;;40.43;21.02;;;;;;;0.89;79.09;99035.96;1796764;75;22719;-50
2021/01/27 07:18:23;;;;;;;38.75;21.52;;;;;;;0.84;79.13;99035.19;1781671;79;21489;-51
2021/01/27 07:21:03;;;;;;;39.42;21.95;;;;;;;0.84;79.26;99032.53;1782005;79;21425;-50
2021/01/27 07:24:03;;;;;;;40.88;22.17;;;;;;;0.86;79.26;99033.39;1782917;78;21049;-51
2021/01/27 07:26:36;;;;;;;38.48;21.27;;;;;;;0.86;79.30;99036.05;1781748;78;21060;-51
2021/01/27 07:29:26;;;;;;;44.23;23.75;;;;;;;0.90;79.38;99044.33;1780957;78;21561;-49
2021/01/27 07:31:59;;;;;;;38.28;20.90;;;;;;;0.92;79.46;99046.52;1783518;79;20977;-51
2021/01/27 07:34:41;;;;;;;40.60;22.27;;;;;;;0.94;79.37;99047.34;1782894;78;21353;-51
2021/01/27 07:37:41;;;;;;;;;;;;;;;0.93;79.35;99056.22;1785725;78;20952;-56
2021/01/27 07:40:15;;;;;;;47.83;25.85;;;;;;;0.93;79.35;99046.94;1767654;79;20187;-49
2021/01/27 07:43:09;;;;;;;45.92;25.80;;;;;;;0.89;79.59;99049.23;1782787;79;21104;-50
2021/01/27 07:45:39;;;;;;;52.70;29.92;;;;;;;0.87;79.76;99040.44;1782042;79;21009;-51
2021/01/27 07:48:32;;;;;;;52.13;28.20;;;;;;;0.88;79.81;99039.53;1781542;79;21358;-49
2021/01/27 07:51:19;;;;;;;47.15;28.60;;;;;;;0.93;79.85;99034.98;1793609;76;23345;-49
2021/01/27 07:54:07;;;;;;;49.98;29.27;;;;;;;0.90;79.88;99039.48;1760829;78;20994;-51
2021/01/27 07:57:34;;;;;;;46.00;26.55;;;;;;;0.96;79.91;99037.59;1840309;75;22728;-48
2021/01/27 08:00:23;;;;;;;46.98;26.95;;;;;;;0.96;79.93;99034.94;1810255;77;21022;-48
2021/01/27 08:03:08;;;;;;;45.80;29.27;;;;;;;1.10;79.88;99037.70;1806571;77;28211;-45
2021/01/27 08:05:40;;;;;;;43.38;26.27;;;;;;;1.11;79.52;99043.42;1801068;76;21398;-45
2021/01/27 08:08:21;;;;;;;47.03;27.20;;;;;;;1.09;79.36;99041.27;1791367;77;21205;-48
2021/01/27 08:10:50;;;;;;;53.20;27.00;;;;;;;1.06;79.39;99042.20;1791718;77;20983;-47
2021/01/27 08:13:29;;;;;;;42.55;25.10;;;;;;;1.05;79.46;99038.67;1793596;77;20966;-49
2021/01/27 08:16:17;;;;;;;46.63;24.20;;;;;;;1.09;79.52;99047.45;1791264;77;21638;-47
2021/01/27 08:19:14;;;;;;;38.58;23.62;;;;;;;1.09;79.53;99045.26;1790939;77;21893;-47
2021/01/27 08:21:53;;;;;;;45.08;23.18;;;;;;;1.07;79.31;99047.09;1792977;77;22291;-47
2021/01/27 08:24:41;;;;;;;39.60;22.37;;;;;;;1.10;79.33;99048.33;1793596;77;21026;-47
2021/01/27 08:27:26;;;;;;;37.20;20.92;;;;;;;1.10;79.02;99047.00;1790478;77;20952;-46
2021/01/27 08:30:14;;;;;;;33.80;20.92;;;;;;;1.15;78.97;99042.45;1828084;76;22729;-46
2021/01/27 08:32:45;;;;;;;36.80;21.07;;;;;;;1.09;78.86;99037.29;1761096;79;21474;-46
2021/01/27 08:35:38;;;;;;;34.90;20.65;;;;;;;1.09;78.91;99050.56;1732341;79;21372;-48
2021/01/27 08:38:22;;;;;;;30.35;17.73;;;;;;;1.14;78.68;99047.34;1803466;78;22396;-45
2021/01/27 08:40:50;;;;;;;29.63;18.27;;;;;;;1.09;78.06;99046.58;1805416;77;20923;-47
2021/01/27 08:43:18;;;;;;;31.27;18.75;;;;;;;1.07;77.88;99045.30;1804722;77;21370;-46
2021/01/27 08:45:47;;;;;;;29.67;18.07;;;;;;;1.08;77.82;99040.86;1805760;77;20978;-46
2021/01/27 08:48:15;;;;;;;33.83;18.62;;;;;;;1.11;77.50;99046.08;1775133;77;21025;-45
2021/01/27 08:50:49;;;;;;;32.75;18.87;;;;;;;1.12;77.66;99038.53;1679248;82;20997;-47
2021/01/27 08:53:24;;;;;;;34.27;19.52;;;;;;;1.11;77.77;99047.41;1766157;79;21518;-46
2021/01/27 08:55:59;;;;;;;29.72;16.42;;;;;;;1.07;77.84;99041.78;1741782;80;22244;-46
2021/01/27 08:58:39;;;;;;;29.20;17.20;;;;;;;1.08;77.90;99033.77;1738571;80;21014;-45
2021/01/27 09:01:31;;;;;;;31.37;17.10;;;;;;;1.11;77.97;99038.12;1765732;79;21075;-47
2021/01/27 09:04:02;;;;;;;30.20;17.87;;;;;;;1.11;77.70;99040.77;1741715;80;20994;-47
2021/01/27 09:06:42;;;;;;;33.53;18.70;;;;;;;1.10;77.83;99052.31;1740154;80;21130;-47
2021/01/27 09:09:26;;;;;;;29.40;16.95;;;;;;;1.09;77.82;99043.93;1768382;79;21375;-48
2021/01/27 09:12:02;;;;;;;33.80;17.67;;;;;;;1.12;77.39;99035.88;1739304;80;21641;-52
2021/01/27 09:14:30;;;;;;;31.12;19.17;;;;;;;1.09;77.26;99038.16;1740063;80;21156;-51
2021/01/27 09:16:59;;;;;;;31.85;18.15;;;;;;;1.09;77.40;99033.31;1735189;81;21632;-51
2021/01/27 09:22:24;;;;;;;24.77;15.08;;;;;;;1.16;76.94;99022.95;1811534;77;21010;-49
2021/01/27 09:24:53;;;;;;;27.42;16.90;;;;;;;1.13;77.21;99036.32;1783593;79;20993;-47
2021/01/27 09:27:31;;;;;;;29.25;15.83;;;;;;;1.16;76.72;99037.55;1776074;78;21155;-50
2021/01/27 09:30:08;;;;;;;26.52;15.58;;;;;;;1.20;76.81;99035.25;1773435;79;21617;-48
2021/01/27 09:32:38;;;;;;;27.50;16.35;;;;;;;1.21;76.37;99038.31;1776800;78;21033;-49
2021/01/27 09:35:21;;;;;;;26.10;16.55;;;;;;;1.18;76.03;99031.77;1742074;81;21070;-49
2021/01/27 09:38:12;;;;;;;25.40;15.55;;;;;;;1.18;76.16;99035.75;1710776;81;21007;-47
2021/01/27 09:40:43;;;;;;;28.23;16.52;;;;;;;1.19;75.84;99042.80;1725396;81;21855;-52
2021/01/27 09:43:13;;;;;;;26.70;16.07;;;;;;;1.20;75.82;99032.59;1724546;81;21042;-49
2021/01/27 09:45:44;;;;;;;;;;;;;;;1.22;75.78;99030.77;1732659;81;21065;-55
2021/01/27 09:48:14;;;;;;;25.85;14.25;;;;;;;1.25;75.59;99029.38;1725866;81;20171;-46
2021/01/27 09:50:48;;;;;;;27.27;15.40;;;;;;;1.26;75.10;99036.42;1724145;81;21140;-48
2021/01/27 09:53:29;;;;;;;24.57;15.30;;;;;;;1.27;74.56;99039.49;1715894;81;21362;-53
2021/01/27 09:56:07;;;;;;;24.32;14.85;;;;;;;1.32;74.77;99032.29;1778906;78;22786;-49
2021/01/27 09:58:39;;;;;;;28.57;15.50;;;;;;;1.34;74.81;99031.81;1762015;79;20996;-51
2021/01/27 10:01:09;;;;;;;;;;;;;;;1.38;74.74;99028.15;1763139;79;21294;-47
2021/01/27 10:03:45;;;;;;;26.35;14.43;;;;;;;1.41;74.60;99021.44;1756021;79;20182;-50
2021/01/27 10:06:48;;;;;;;22.52;13.08;;;;;;;1.44;74.31;99021.38;1736140;79;20986;-46
2021/01/27 10:09:20;;;;;;;20.57;13.25;;;;;;;1.47;73.45;99013.31;1758588;79;21107;-47
2021/01/27 10:12:01;;;;;;;23.32;13.48;;;;;;;1.43;72.55;99014.30;1760585;79;20939;-48
2021/01/27 10:14:32;;;;;;;25.12;13.68;;;;;;;1.41;72.74;99008.16;1761980;79;21363;-49
2021/01/27 10:17:02;;;;;;;22.48;12.78;;;;;;;1.43;72.82;99008.98;1760660;79;21002;-49
2021/01/27 10:19:50;;;;;;;21.03;12.20;;;;;;;1.46;72.36;99011.58;1759885;79;21009;-49
2021/01/27 10:22:29;;;;;;;20.65;12.15;;;;;;;1.46;72.18;99002.73;1763611;79;21006;-48
2021/01/27 10:25:00;;;;;;;20.12;12.93;;;;;;;1.43;72.19;98997.03;1759884;79;21498;-48
2021/01/27 10:27:35;;;;;;;21.93;13.62;;;;;;;1.43;72.34;99000.14;1760034;79;21203;-47
2021/01/27 10:30:23;;;;;;;24.35;13.05;;;;;;;1.43;72.54;98994.37;1756182;79;21161;-48
2021/01/27 10:32:51;;;;;;;24.30;14.63;;;;;;;1.47;72.07;99011.98;1761790;79;21018;-48
2021/01/27 10:35:30;;;;;;;20.40;12.93;;;;;;;1.48;71.21;99007.08;1757561;79;21100;-53
2021/01/27 10:38:12;;;;;;;18.67;10.50;;;;;;;1.48;70.95;99012.39;1759596;79;21641;-50
2021/01/27 10:41:02;;;;;;;16.75;10.58;;;;;;;1.50;70.92;99009.72;1758153;79;21260;-53
2021/01/27 10:43:30;;;;;;;16.82;10.78;;;;;;;1.48;70.00;98999.11;1763230;79;20994;-51
2021/01/27 10:45:59;;;;;;;18.30;10.30;;;;;;;1.49;69.56;99000.89;1761552;79;21006;-49
2021/01/27 10:48:28;;;;;;;14.73;7.95;;;;;;;1.47;68.93;99009.33;1761225;79;20970;-51
2021/01/27 10:51:05;;;;;;;13.05;7.15;;;;;;;1.45;67.84;99003.20;1758997;79;21172;-46
2021/01/27 10:53:43;;;;;;;10.13;7.22;;;;;;;1.45;67.19;99015.15;1714665;81;21882;-45
2021/01/27 10:56:13;;;;;;;10.68;6.90;;;;;;;1.42;66.67;99008.58;1714937;81;21160;-47
2021/01/27 10:58:42;;;;;;;13.95;7.12;;;;;;;1.40;67.15;99014.39;1713875;81;21013;-53
2021/01/27 11:01:10;;;;;;;11.40;6.90;;;;;;;1.38;67.05;99002.91;1695886;82;21145;-50
2021/01/27 11:03:38;;;;;;;11.38;8.03;;;;;;;1.33;67.08;98996.84;1748515;79;21570;-52
2021/01/27 11:06:06;;;;;;;11.73;7.42;;;;;;;1.29;67.43;98981.92;1749982;79;22216;-46
2021/01/27 11:08:35;;;;;;;11.93;6.53;;;;;;;1.30;67.52;98994.28;1750398;79;21041;-46
2021/01/27 11:11:04;;;;;;;15.80;7.03;;;;;;;1.31;67.18;98990.70;1752954;79;21540;-47
2021/01/27 11:13:35;;;;;;;12.00;7.05;;;;;;;1.32;67.36;98991.12;1749451;79;21145;-46
2021/01/27 11:16:08;;;;;;;12.78;7.15;;;;;;;1.32;67.42;98987.13;1754774;79;21589;-46
2021/01/27 11:18:36;;;;;;;14.03;8.40;;;;;;;1.31;67.72;98988.05;1746142;79;21603;-46
2021/01/27 11:21:05;;;;;;;15.30;8.55;;;;;;;1.30;67.67;98984.53;1750726;79;21130;-45
2021/01/27 11:23:33;;;;;;;17.50;8.90;;;;;;;1.28;68.07;98971.75;1749607;79;21685;-45
2021/01/27 11:26:01;;;;;;;12.70;7.35;;;;;;;1.30;68.40;98979.67;1752998;79;20983;-48
2021/01/27 11:28:29;;;;;;;13.80;8.30;;;;;;;1.29;67.97;98981.92;1751900;79;21590;-49
2021/01/27 11:30:57;;;;;;;11.43;7.75;;;;;;;1.27;68.34;98975.75;1747704;79;21366;-48
2021/01/27 11:33:25;;;;;;;15.43;8.65;;;;;;;1.29;68.61;98977.94;1751000;79;21006;-52
2021/01/27 11:35:54;;;;;;;17.05;9.58;;;;;;;1.30;68.98;98981.00;1749456;79;21099;-47
2021/01/27 11:38:22;;;;;;;15.98;9.58;;;;;;;1.29;69.06;98968.64;1752800;79;20964;-46
2021/01/27 11:40:50;;;;;;;22.02;10.98;;;;;;;1.25;69.22;98986.88;1752457;79;21670;-46
2021/01/27 11:43:18;;;;;;;17.00;10.60;;;;;;;1.25;69.44;98977.59;1751147;79;22064;-47
2021/01/27 11:45:47;;;;;;;19.65;10.65;;;;;;;1.24;69.87;98978.51;1752085;79;21207;-47
2021/01/27 11:48:17;;;;;;;16.57;9.17;;;;;;;1.25;70.04;98980.25;1750100;79;20998;-48
2021/01/27 11:50:45;;;;;;;18.70;10.72;;;;;;;1.23;70.32;98975.44;1749867;79;20983;-46
2021/01/27 11:53:16;;;;;;;18.77;10.98;;;;;;;1.23;70.50;98975.44;1753846;79;21101;-46
2021/01/27 11:55:45;;;;;;;18.57;11.18;;;;;;;1.24;70.65;98971.41;1752282;79;21202;-46
2021/01/27 11:58:13;;;;;;;18.15;10.68;;;;;;;1.24;70.64;98965.23;1757925;79;20998;-46
2021/01/27 12:00:41;;;;;;;20.15;10.75;;;;;;;1.23;70.81;98958.17;1756685;79;21009;-46
2021/01/27 12:03:10;;;;;;;18.73;10.65;;;;;;;1.25;70.72;98963.85;1756395;79;21707;-47
2021/01/27 12:05:39;;;;;;;19.48;10.53;;;;;;;1.26;70.47;98963.39;1747383;80;21136;-48
2021/01/27 12:08:07;;;;;;;17.82;9.88;;;;;;;1.30;70.59;98963.28;1752771;79;21427;-46
2021/01/27 12:10:35;;;;;;;20.40;10.05;;;;;;;1.30;70.28;98959.75;1752683;80;21133;-48
2021/01/27 12:13:04;;;;;;;15.95;10.15;;;;;;;1.28;70.40;98956.28;1757022;79;21585;-47
2021/01/27 12:15:32;;;;;;;20.80;10.18;;;;;;;1.30;70.56;98955.31;1749083;80;20978;-47
2021/01/27 12:18:00;;;;;;;18.07;9.93;;;;;;;1.35;70.55;98962.30;1750937;79;21214;-47
2021/01/27 12:20:28;;;;;;;17.27;10.45;;;;;;;1.38;70.50;98960.41;1753633;80;21192;-47
2021/01/27 12:22:57;;;;;;;18.85;11.08;;;;;;;1.42;70.48;98963.41;1749200;79;21152;-46